Time;durP1;ratioP1;P1;durP2;ratioP2;P2;SDS_P1;SDS_P2;PMS_P1;PMS_P2;Temp;Humidity;BMP_temperature;BMP_pressure;BME280_temperature;BME280_humidity;BME280_pressure;Samples;Min_cycle;Max_cycle;Signal;HPM_P1;HPM_P2
2021/09/15 00:00:40;;;;;;;;;;;;;;;-144.99;84.04;52272.81;5063369;28;19950;-80
2021/09/15 00:03:07;;;;;;;;;;;;;;;-144.99;84.03;52338.03;5065598;28;19965;-79
2021/09/15 00:05:34;;;;;;;;;;;;;;;-144.99;83.91;52289.13;5073758;28;20473;-78
2021/09/15 00:08:01;;;;;;;;;;;;;;;-144.99;84.20;52272.81;5067077;28;20012;-79
2021/09/15 00:10:27;;;;;;;;;;;;;;;-144.99;83.94;52342.09;5091927;28;20011;-79
2021/09/15 00:12:54;;;;;;;;;;;;;;;-144.99;83.92;52256.50;5079936;28;19992;-79
2021/09/15 00:15:20;;;;;;;;;;;;;;;-144.99;84.16;52325.81;5075009;28;19989;-78
2021/09/15 00:17:46;;;;;;;;;;;;;;;-144.99;84.17;52280.97;5081913;28;19998;-79
2021/09/15 00:20:13;;;;;;;;;;;;;;;-144.99;84.39;52360.44;5068810;28;20371;-78
2021/09/15 00:22:41;;;;;;;;;;;;;;;-144.99;84.33;52311.53;5066663;28;20029;-75
2021/09/15 00:25:07;;;;;;;;;;;;;;;-144.99;84.31;52305.41;5078229;28;19961;-82
2021/09/15 00:27:34;;;;;;;;;;;;;;;-144.99;84.30;52313.56;5088369;28;20002;-81
2021/09/15 00:30:00;;;;;;;;;;;;;;;-144.99;84.52;52293.19;5087185;28;19936;-82
2021/09/15 00:32:27;;;;;;;;;;;;;;;-144.99;84.71;52342.09;5088505;28;19951;-80
2021/09/15 00:34:53;;;;;;;;;;;;;;;-144.99;84.34;52266.69;5086120;28;20008;-78
2021/09/15 00:37:19;;;;;;;;;;;;;;;-144.99;84.59;52313.56;5073834;28;20474;-80
2021/09/15 00:39:47;;;;;;;;;;;;;;;-144.99;84.63;52305.41;5073776;28;19945;-80
2021/09/15 00:42:14;;;;;;;;;;;;;;;-144.99;84.54;52280.97;5074635;28;19944;-80
2021/09/15 00:44:40;;;;;;;;;;;;;;;-144.99;84.62;52299.31;5072911;28;20069;-80
2021/09/15 00:47:07;;;;;;;;;;;;;;;-144.99;84.40;52317.66;5070614;28;19975;-80
2021/09/15 00:49:33;;;;;;;;;;;;;;;-144.99;84.80;52285.03;5069479;28;19951;-79
2021/09/15 00:52:00;;;;;;;;;;;;;;;-144.99;84.85;52313.56;5066328;28;19946;-80
2021/09/15 00:54:27;;;;;;;;;;;;;;;-144.99;84.65;52256.50;5067441;28;20433;-80
2021/09/15 00:56:55;;;;;;;;;;;;;;;-144.99;84.33;52333.94;5076945;28;19968;-79
2021/09/15 00:59:21;;;;;;;;;;;;;;;-144.99;84.41;52309.50;5072966;28;19967;-79
2021/09/15 01:01:47;;;;;;;;;;;;;;;-144.99;84.39;52305.41;5073250;28;20041;-79
2021/09/15 01:04:14;;;;;;;;;;;;;;;-144.99;84.75;52293.19;5081719;28;20290;-79
2021/09/15 01:06:41;;;;;;;;;;;;;;;-144.99;84.66;52315.59;5071377;28;19969;-80
2021/09/15 01:09:07;;;;;;;;;;;;;;;-144.99;84.68;52285.03;5072214;28;19973;-80
2021/09/15 01:11:34;;;;;;;;;;;;;;;-144.99;84.93;52285.03;5072552;28;19936;-78
2021/09/15 01:14:02;;;;;;;;;;;;;;;-144.99;84.89;52325.81;5072613;28;19967;-81
2021/09/15 01:16:28;;;;;;;;;;;;;;;-144.99;84.76;52305.41;5071290;28;19946;-80
2021/09/15 01:18:55;;;;;;;;;;;;;;;-144.99;84.83;52289.13;5071152;28;19972;-79
2021/09/15 01:21:23;;;;;;;;;;;;;;;-144.99;84.89;52329.88;5065471;28;20400;-79
2021/09/15 01:23:49;;;;;;;;;;;;;;;-144.99;85.04;52285.03;5066579;28;19956;-79
2021/09/15 01:26:15;;;;;;;;;;;;;;;-144.99;85.23;52319.69;5066635;28;19948;-76
2021/09/15 01:28:42;;;;;;;;;;;;;;;-144.99;85.15;52317.66;5066129;28;19984;-77
2021/09/15 01:31:08;;;;;;;;;;;;;;;-144.99;85.19;52329.88;5071742;28;19977;-78
2021/09/15 01:33:34;;;;;;;;;;;;;;;-144.99;85.60;52317.66;5082716;28;19936;-83
2021/09/15 01:36:01;;;;;;;;;;;;;;;-144.99;85.23;52309.50;5088101;28;19939;-84
2021/09/15 01:38:29;;;;;;;;;;;;;;;-144.99;85.24;52313.56;5090834;28;19969;-81
2021/09/15 01:40:56;;;;;;;;;;;;;;;-144.99;85.18;52297.25;5091194;28;20164;-83
2021/09/15 01:43:22;;;;;;;;;;;;;;;-144.99;85.79;52315.59;5092296;28;19930;-82
2021/09/15 01:45:48;;;;;;;;;;;;;;;-144.99;85.95;52289.13;5091028;28;20021;-79
2021/09/15 01:48:15;;;;;;;;;;;;;;;-144.99;86.23;52307.47;5091863;28;20011;-82
2021/09/15 01:50:41;;;;;;;;;;;;;;;-144.99;86.09;52313.56;5091514;28;19944;-81
2021/09/15 01:53:07;;;;;;;;;;;;;;;-144.99;86.30;52309.50;5096465;28;20032;-79
2021/09/15 01:55:35;;;;;;;;;;;;;;;-144.99;86.10;52299.31;5103675;28;19935;-77
2021/09/15 01:58:02;;;;;;;;;;;;;;;-144.99;86.18;52297.25;5094239;28;19999;-78
2021/09/15 02:00:28;;;;;;;;;;;;;;;-144.99;86.41;52346.19;5087936;28;19998;-76
2021/09/15 02:02:55;;;;;;;;;;;;;;;-144.99;86.69;52329.88;5095016;28;20422;-80
2021/09/15 02:05:21;;;;;;;;;;;;;;;-144.99;86.80;52297.25;5089345;28;19926;-78
2021/09/15 02:07:48;;;;;;;;;;;;;;;-144.99;86.60;52305.41;5088639;28;20016;-75
2021/09/15 02:10:14;;;;;;;;;;;;;;;-144.99;86.66;52321.72;5090600;28;19941;-78
2021/09/15 02:12:42;;;;;;;;;;;;;;;-144.99;86.56;52305.41;5092401;28;19944;-78
2021/09/15 02:15:10;;;;;;;;;;;;;;;-144.99;86.45;52315.59;5092454;28;20009;-78
2021/09/15 02:17:37;;;;;;;;;;;;;;;-144.99;86.37;52346.19;5091974;28;19970;-77
2021/09/15 02:20:04;;;;;;;;;;;;;;;-144.99;86.71;52340.06;5091082;28;20155;-77
2021/09/15 02:22:33;;;;;;;;;;;;;;;-144.99;86.51;52317.66;5090794;28;20003;-78
2021/09/15 02:24:59;;;;;;;;;;;;;;;-144.99;86.67;52321.72;5091377;28;19940;-78
2021/09/15 02:27:26;;;;;;;;;;;;;;;-144.99;86.53;52289.13;5091619;28;20052;-77
2021/09/15 02:29:54;;;;;;;;;;;;;;;-144.99;86.51;52285.03;5090538;28;19932;-80
2021/09/15 02:32:20;;;;;;;;;;;;;;;-144.99;86.88;52317.66;5080112;28;20033;-81
2021/09/15 02:34:47;;;;;;;;;;;;;;;-144.99;87.09;52309.50;5079010;28;20066;-76
2021/09/15 02:37:14;;;;;;;;;;;;;;;-144.99;87.12;52313.56;5079157;28;19960;-77
2021/09/15 02:39:40;;;;;;;;;;;;;;;-144.99;87.88;52321.72;5065933;28;19928;-77
2021/09/15 02:42:07;;;;;;;;;;;;;;;-144.99;88.01;52317.66;5066421;28;19973;-74
2021/09/15 02:44:33;;;;;;;;;;;;;;;-144.99;88.34;52323.75;5067503;28;19960;-78
2021/09/15 02:47:01;;;;;;;;;;;;;;;-144.99;88.71;52321.72;5068095;28;19942;-76
2021/09/15 02:49:28;;;;;;;;;;;;;;;-144.99;88.65;52346.19;5067716;28;20050;-79
2021/09/15 02:51:54;;;;;;;;;;;;;;;-144.99;88.76;52297.25;5068044;28;20423;-77
2021/09/15 02:54:21;;;;;;;;;;;;;;;-144.99;88.92;52303.38;5071062;28;19965;-78
2021/09/15 02:56:48;;;;;;;;;;;;;;;-144.99;89.04;52325.81;5067651;28;19941;-78
2021/09/15 02:59:14;;;;;;;;;;;;;;;-144.99;89.60;52315.59;5067029;28;20040;-78
2021/09/15 03:01:40;;;;;;;;;;;;;;;-144.99;89.74;52299.31;5068298;28;19954;-81
2021/09/15 03:04:08;;;;;;;;;;;;;;;-144.99;89.77;52325.81;5069441;28;19949;-78
2021/09/15 03:06:34;;;;;;;;;;;;;;;-144.99;89.85;52289.13;5074993;28;20649;-76
2021/09/15 03:09:01;;;;;;;;;;;;;;;-144.99;90.07;52317.66;5067039;28;19950;-77
2021/09/15 03:11:27;;;;;;;;;;;;;;;-144.99;89.83;52325.81;5065645;28;20123;-78
2021/09/15 03:13:54;;;;;;;;;;;;;;;-144.99;89.83;52291.16;5064706;28;20246;-77
2021/09/15 03:16:22;;;;;;;;;;;;;;;-144.99;90.11;52319.69;5064915;28;20030;-77
2021/09/15 03:18:48;;;;;;;;;;;;;;;-144.99;90.71;52313.56;5064394;28;20045;-78
2021/09/15 03:21:16;;;;;;;;;;;;;;;-144.99;91.16;52338.03;5065692;28;19951;-77
2021/09/15 03:23:42;;;;;;;;;;;;;;;-144.99;90.96;52333.94;5064432;28;19946;-78
2021/09/15 03:26:08;;;;;;;;;;;;;;;-144.99;90.90;52307.47;5065179;28;20459;-77
2021/09/15 03:28:35;;;;;;;;;;;;;;;-144.99;91.39;52338.03;5065362;28;20063;-75
2021/09/15 03:31:01;;;;;;;;;;;;;;;-144.99;91.97;52342.09;5063611;28;19949;-74
2021/09/15 03:33:28;;;;;;;;;;;;;;;-144.99;92.36;52342.09;5071184;28;19946;-77
2021/09/15 03:35:54;;;;;;;;;;;;;;;-144.99;92.89;52333.94;5071275;28;20430;-76
2021/09/15 03:38:22;;;;;;;;;;;;;;;-144.99;93.64;52321.72;5067320;28;20465;-78
2021/09/15 03:40:48;;;;;;;;;;;;;;;-144.99;93.71;52325.81;5078780;28;19941;-77
2021/09/15 03:43:15;;;;;;;;;;;;;;;-144.99;93.26;52311.53;5074701;28;19955;-77
2021/09/15 03:45:41;;;;;;;;;;;;;;;-144.99;93.03;52333.94;5069516;28;19948;-77
2021/09/15 03:48:07;;;;;;;;;;;;;;;-144.99;93.00;52321.72;5068298;28;19963;-77
2021/09/15 03:50:34;;;;;;;;;;;;;;;-144.99;93.40;52358.41;5068100;28;20322;-77
2021/09/15 03:53:00;;;;;;;;;;;;;;;-144.99;93.96;52307.47;5067323;28;20556;-79
2021/09/15 03:55:28;;;;;;;;;;;;;;;-144.99;94.59;52338.03;5074264;28;19984;-78
2021/09/15 03:57:54;;;;;;;;;;;;;;;-144.99;94.62;52321.72;5071844;28;19970;-75
2021/09/15 04:00:21;;;;;;;;;;;;;;;-144.99;94.45;52323.75;5068188;28;20165;-75
2021/09/15 04:02:47;;;;;;;;;;;;;;;-144.99;94.60;52358.41;5070863;28;19952;-76
2021/09/15 04:05:14;;;;;;;;;;;;;;;-144.99;94.65;52317.66;5071305;28;19948;-75
2021/09/15 04:07:40;;;;;;;;;;;;;;;-144.99;94.69;52297.25;5075720;28;20027;-76
2021/09/15 04:10:07;;;;;;;;;;;;;;;-144.99;95.25;52350.25;5076014;28;19951;-74
2021/09/15 04:12:35;;;;;;;;;;;;;;;-144.99;95.53;52301.34;5069458;28;20416;-75
2021/09/15 04:15:01;;;;;;;;;;;;;;;-144.99;95.77;52301.34;5069388;28;19965;-75
2021/09/15 04:17:28;;;;;;;;;;;;;;;-144.99;96.07;52325.81;5081956;28;20023;-78
2021/09/15 04:19:54;;;;;;;;;;;;;;;-144.99;96.17;52331.91;5077783;28;20000;-74
2021/09/15 04:22:21;;;;;;;;;;;;;;;-144.99;95.84;52313.56;5067585;28;20032;-75
2021/09/15 04:32:58;;;;;;;;;;;;;;;-144.99;96.57;52297.25;5068985;28;19955;-72
2021/09/15 04:35:25;;;;;;;;;;;;;;;-144.99;96.73;52342.09;5069736;28;20390;-73
2021/09/15 04:37:51;;;;;;;;;;;;;;;-144.99;96.98;52321.72;5067285;28;19959;-72
2021/09/15 04:40:18;;;;;;;;;;;;;;;-144.99;96.85;52344.16;5055299;28;19953;-73
2021/09/15 04:42:44;;;;;;;;;;;;;;;-144.99;97.12;52336.00;5068467;28;19943;-72
2021/09/15 04:45:11;;;;;;;;;;;;;;;-144.99;97.13;52317.66;5067178;28;19948;-74
2021/09/15 04:47:39;;;;;;;;;;;;;;;-144.99;97.25;52340.06;5067357;28;20097;-72
2021/09/15 04:50:05;;;;;;;;;;;;;;;-144.99;97.41;52331.91;5067446;28;19961;-74
2021/09/15 04:52:32;;;;;;;;;;;;;;;-144.99;97.17;52268.72;5066156;28;20358;-76
2021/09/15 04:55:00;;;;;;;;;;;;;;;-144.99;97.66;52333.94;5069868;28;19970;-73
2021/09/15 04:57:26;;;;;;;;;;;;;;;-144.99;97.45;52323.75;5073587;28;20566;-73
2021/09/15 04:59:52;;;;;;;;;;;;;;;-144.99;97.36;52297.25;4017798;28;10000718;-75
2021/09/15 05:02:19;;;;;;;;;;;;;;;-144.99;97.01;52305.41;5059660;28;19952;-71
2021/09/15 05:04:46;;;;;;;;;;;;;;;-144.99;97.03;52358.41;5063532;28;19950;-73
2021/09/15 05:07:13;;;;;;;;;;;;;;;-144.99;97.27;52321.72;5061780;28;19978;-71
2021/09/15 05:09:42;;;;;;;;;;;;;;;-144.99;96.98;52264.66;5066529;28;19972;-72
2021/09/15 05:12:08;;;;;;;;;;;;;;;-144.99;96.98;52309.50;5063622;28;20084;-72
2021/09/15 05:14:35;;;;;;;;;;;;;;;-144.99;96.42;52323.75;5063934;28;19954;-74
2021/09/15 05:17:01;;;;;;;;;;;;;;;-144.99;97.27;52321.72;5063506;28;19967;-74
2021/09/15 05:19:28;;;;;;;;;;;;;;;-144.99;97.33;52305.41;5063215;28;20766;-74
2021/09/15 05:21:55;;;;;;;;;;;;;;;-144.99;97.18;52333.94;5061873;28;19965;-73
2021/09/15 05:24:22;;;;;;;;;;;;;;;-144.99;97.17;52313.56;5063791;28;19978;-74
2021/09/15 05:26:48;;;;;;;;;;;;;;;-144.99;97.38;52331.91;5063519;28;19959;-75
2021/09/15 05:29:15;;;;;;;;;;;;;;;-144.99;96.97;52333.94;5062927;28;20442;-73
2021/09/15 05:31:41;;;;;;;;;;;;;;;-144.99;97.36;52329.88;5062659;28;19947;-74
2021/09/15 05:34:07;;;;;;;;;;;;;;;-144.99;97.22;52338.03;5068026;28;19953;-73
2021/09/15 05:36:34;;;;;;;;;;;;;;;-144.99;96.81;52289.13;5060766;28;20065;-71
2021/09/15 05:39:01;;;;;;;;;;;;;;;-144.99;96.84;52317.66;5062121;28;20467;-73
2021/09/15 05:41:28;;;;;;;;;;;;;;;-144.99;96.70;52333.94;5061822;28;19958;-72
2021/09/15 05:43:54;;;;;;;;;;;;;;;-144.99;97.01;52280.97;5063627;28;20451;-76
2021/09/15 05:46:20;;;;;;;;;;;;;;;-144.99;96.81;52297.25;5063283;28;20362;-76
2021/09/15 05:48:47;;;;;;;;;;;;;;;-144.99;96.41;52313.56;5062894;28;20341;-76
2021/09/15 05:51:13;;;;;;;;;;;;;;;-144.99;96.43;52319.69;5062779;28;20729;-71
2021/09/15 05:53:40;;;;;;;;;;;;;;;-144.99;96.49;52338.03;5063819;28;19953;-73
2021/09/15 05:56:07;;;;;;;;;;;;;;;-144.99;96.13;52313.56;5067275;28;19959;-73
2021/09/15 05:58:34;;;;;;;;;;;;;;;-144.99;96.30;52295.22;5064177;28;19975;-76
2021/09/15 06:01:00;;;;;;;;;;;;;;;-144.99;96.21;52309.50;5062281;28;19959;-76
2021/09/15 06:03:27;;;;;;;;;;;;;;;-144.99;96.05;52305.41;5071261;28;19952;-73
2021/09/15 06:05:53;;;;;;;;;;;;;;;-144.99;95.95;52325.81;5066938;28;20033;-74
2021/09/15 06:08:20;;;;;;;;;;;;;;;-144.99;96.13;52329.88;5062159;28;19966;-73
2021/09/15 06:10:46;;;;;;;;;;;;;;;-144.99;96.02;52297.25;5062790;28;19962;-77
2021/09/15 06:13:14;;;;;;;;;;;;;;;-144.99;95.86;52325.81;5063302;28;20306;-74
2021/09/15 06:15:40;;;;;;;;;;;;;;;-144.99;96.00;52293.19;5063541;28;20016;-74
2021/09/15 06:18:07;;;;;;;;;;;;;;;-144.99;95.79;52268.72;5062548;28;20231;-75
2021/09/15 06:20:33;;;;;;;;;;;;;;;-144.99;95.79;52272.81;5062223;28;19988;-74
2021/09/15 06:22:59;;;;;;;;;;;;;;;-144.99;95.60;52327.84;5060147;28;20145;-75
2021/09/15 06:25:27;;;;;;;;;;;;;;;-144.99;95.13;52309.50;5063031;28;19973;-76
2021/09/15 06:27:55;;;;;;;;;;;;;;;-144.99;95.09;52329.88;5065538;28;19994;-76
2021/09/15 06:30:24;;;;;;;;;;;;;;;-144.99;94.97;52333.94;5061827;28;20496;-75
2021/09/15 06:32:51;;;;;;;;;;;;;;;-144.99;94.55;52321.72;5063317;28;19958;-75
2021/09/15 06:35:17;;;;;;;;;;;;;;;-144.99;94.45;52293.19;5066418;28;20734;-76
2021/09/15 06:37:44;;;;;;;;;;;;;;;-144.99;94.27;52305.41;5060366;28;19983;-78
2021/09/15 06:40:11;;;;;;;;;;;;;;;-144.99;94.47;52309.50;5061591;28;19981;-76
2021/09/15 06:42:37;;;;;;;;;;;;;;;-144.99;94.07;52309.50;5062451;28;19991;-74
2021/09/15 06:45:04;;;;;;;;;;;;;;;-144.99;94.11;52295.22;5062158;28;19986;-75
2021/09/15 06:47:32;;;;;;;;;;;;;;;-144.99;93.84;52289.13;5061458;28;19992;-75
2021/09/15 06:49:58;;;;;;;;;;;;;;;-144.99;93.63;52309.50;5061162;28;20467;-75
2021/09/15 06:52:25;;;;;;;;;;;;;;;-144.99;93.98;52297.25;5067466;28;20211;-75
2021/09/15 06:54:51;;;;;;;;;;;;;;;-144.99;94.30;52317.66;5068465;28;20481;-76
2021/09/15 06:57:18;;;;;;;;;;;;;;;-144.99;95.59;52307.47;5063883;28;20390;-73
2021/09/15 06:59:44;;;;;;;;;;;;;;;-144.99;96.02;52317.66;5060448;28;19953;-74
2021/09/15 07:02:10;;;;;;;;;;;;;;;-144.99;97.31;52331.91;5061432;28;19979;-74
2021/09/15 07:04:38;;;;;;;;;;;;;;;-144.99;97.65;52329.88;5059108;28;20299;-74
2021/09/15 07:07:04;;;;;;;;;;;;;;;-144.99;98.13;52313.56;5059828;28;19964;-74
2021/09/15 07:09:32;;;;;;;;;;;;;;;-144.99;98.94;52350.25;5064824;28;19960;-75
2021/09/15 07:11:59;;;;;;;;;;;;;;;-144.99;99.69;52297.25;5065280;28;20061;-71
2021/09/15 07:14:25;;;;;;;;;;;;;;;-144.99;99.89;52313.56;5065800;28;19980;-75
2021/09/15 07:16:52;;;;;;;;;;;;;;;-144.99;100.00;52305.41;5065461;28;19968;-74
2021/09/15 07:19:18;;;;;;;;;;;;;;;-144.99;100.00;52340.06;5064477;28;20477;-74
2021/09/15 07:21:46;;;;;;;;;;;;;;;-144.99;100.00;52305.41;5063824;28;20367;-74
2021/09/15 07:24:12;;;;;;;;;;;;;;;-144.99;100.00;52293.19;5064944;28;19979;-75
2021/09/15 07:26:39;;;;;;;;;;;;;;;-144.99;100.00;52338.03;5065031;28;19961;-73
2021/09/15 07:29:05;;;;;;;;;;;;;;;-144.99;100.00;52317.66;5073518;28;20075;-72
2021/09/15 07:31:37;;;;;;;;;;;;;;;-144.99;100.00;52291.16;5064746;28;19978;-73
2021/09/15 07:34:03;;;;;;;;;;;;;;;-144.99;100.00;52325.81;5070698;28;19958;-75
2021/09/15 07:36:30;;;;;;;;;;;;;;;-144.99;100.00;52268.72;5060259;28;19997;-75
2021/09/15 07:38:58;;;;;;;;;;;;;;;-144.99;100.00;52321.72;5055038;28;19989;-74
2021/09/15 07:41:25;;;;;;;;;;;;;;;-144.99;100.00;52317.66;5065669;28;20026;-74
2021/09/15 07:43:51;;;;;;;;;;;;;;;-144.99;100.00;52325.81;5064176;28;20431;-74
2021/09/15 07:46:21;;;;;;;;;;;;;;;-144.99;100.00;52325.81;5062814;28;20264;-72
2021/09/15 07:48:47;;;;;;;;;;;;;;;-144.99;100.00;52317.66;5063549;28;20183;-74
2021/09/15 07:51:14;;;;;;;;;;;;;;;-144.99;100.00;52338.03;5065314;28;20058;-76
2021/09/15 07:53:40;;;;;;;;;;;;;;;-144.99;100.00;52309.50;5065098;28;19984;-72
2021/09/15 07:56:08;;;;;;;;;;;;;;;-144.99;100.00;52342.09;5070684;28;20000;-76
2021/09/15 07:58:34;;;;;;;;;;;;;;;-144.99;100.00;52333.94;5065401;28;20003;-71
2021/09/15 08:01:01;;;;;;;;;;;;;;;-144.99;100.00;52350.25;5064895;28;19982;-74
2021/09/15 08:03:27;;;;;;;;;;;;;;;-144.99;100.00;52319.69;5059723;28;20353;-74
2021/09/15 08:05:54;;;;;;;;;;;;;;;-144.99;100.00;52325.81;5064117;28;20476;-74
2021/09/15 08:08:21;;;;;;;;;;;;;;;-144.99;100.00;52313.56;5063953;28;19996;-74
2021/09/15 08:10:47;;;;;;;;;;;;;;;-144.99;100.00;52276.88;5063374;28;19975;-73
2021/09/15 08:13:15;;;;;;;;;;;;;;;-144.99;100.00;52342.09;5065977;28;19979;-74
2021/09/15 08:15:42;;;;;;;;;;;;;;;-144.99;100.00;52305.41;5064909;28;19985;-75
2021/09/15 08:18:08;;;;;;;;;;;;;;;-144.99;100.00;52315.59;5063728;28;20456;-75
2021/09/15 08:20:35;;;;;;;;;;;;;;;-144.99;100.00;52329.88;5063738;28;19982;-75
2021/09/15 08:23:01;;;;;;;;;;;;;;;-144.99;100.00;52323.75;5062388;28;19985;-75
2021/09/15 08:25:27;;;;;;;;;;;;;;;-144.99;100.00;52293.19;5064613;28;19978;-75
2021/09/15 08:27:54;;;;;;;;;;;;;;;-144.99;100.00;52313.56;5051368;28;19995;-71
2021/09/15 08:30:22;;;;;;;;;;;;;;;-144.99;100.00;52301.34;5063623;28;20069;-72
2021/09/15 08:32:48;;;;;;;;;;;;;;;-144.99;100.00;52327.84;5067585;28;19975;-75
2021/09/15 08:35:15;;;;;;;;;;;;;;;-144.99;100.00;52338.03;5067069;28;20082;-74
2021/09/15 08:37:41;;;;;;;;;;;;;;;-144.99;100.00;52333.94;5062475;28;20084;-75
2021/09/15 08:40:11;;;;;;;;;;;;;;;-144.99;100.00;52321.72;5063609;28;19979;-75
2021/09/15 08:42:37;;;;;;;;;;;;;;;-144.99;100.00;52301.34;5064720;28;20573;-73
2021/09/15 08:45:04;;;;;;;;;;;;;;;-144.99;100.00;52309.50;5064707;28;20057;-73
2021/09/15 08:47:34;;;;;;;;;;;;;;;-144.99;100.00;52307.47;5072872;28;20105;-75
2021/09/15 08:50:01;;;;;;;;;;;;;;;-144.99;100.00;52313.56;5069875;28;20080;-75
2021/09/15 08:52:27;;;;;;;;;;;;;;;-144.99;100.00;52301.34;5062692;28;19969;-73
2021/09/15 08:54:54;;;;;;;;;;;;;;;-144.99;100.00;52301.34;5066681;28;20067;-76
2021/09/15 08:57:20;;;;;;;;;;;;;;;-144.99;100.00;52342.09;5068563;28;20004;-76
2021/09/15 08:59:47;;;;;;;;;;;;;;;-144.99;100.00;52309.50;5062699;28;20198;-74
2021/09/15 09:02:14;;;;;;;;;;;;;;;-144.99;100.00;52305.41;5063509;28;20155;-73
2021/09/15 09:04:52;;;;;;;;;;;;;;;-144.99;100.00;52325.81;5064023;28;19974;-71
2021/09/15 09:07:18;;;;;;;;;;;;;;;-144.99;100.00;52358.41;5062142;28;20020;-71
2021/09/15 09:09:46;;;;;;;;;;;;;;;-144.99;100.00;52342.09;5064574;28;19975;-73
2021/09/15 09:12:12;;;;;;;;;;;;;;;-144.99;100.00;52303.38;5063159;28;19989;-74
2021/09/15 09:14:39;;;;;;;;;;;;;;;-144.99;100.00;52309.50;5064515;28;19984;-75
2021/09/15 09:17:05;;;;;;;;;;;;;;;-144.99;100.00;52305.41;5063306;28;20002;-71
2021/09/15 09:19:31;;;;;;;;;;;;;;;-144.99;100.00;52346.19;5062652;28;19982;-74
2021/09/15 09:22:00;;;;;;;;;;;;;;;-144.99;100.00;52305.41;5061760;28;20417;-73
2021/09/15 09:24:27;;;;;;;;;;;;;;;-144.99;100.00;52325.81;5063184;28;20456;-74
2021/09/15 09:26:54;;;;;;;;;;;;;;;-144.99;100.00;52325.81;5063995;28;20053;-75
2021/09/15 09:29:22;;;;;;;;;;;;;;;-144.99;100.00;52327.84;5062183;28;19998;-77
2021/09/15 09:32:04;;;;;;;;;;;;;;;-144.99;100.00;52289.13;5062539;28;20426;-76
2021/09/15 09:34:31;;;;;;;;;;;;;;;-144.99;100.00;52305.41;5066157;28;20471;-73
2021/09/15 09:37:08;;;;;;;;;;;;;;;-144.99;100.00;52313.56;5060796;28;20006;-74
2021/09/15 09:39:36;;;;;;;;;;;;;;;-144.99;100.00;52321.72;5062323;28;20371;-73
2021/09/15 09:42:03;;;;;;;;;;;;;;;-144.99;100.00;52303.38;5062713;28;20465;-76
2021/09/15 09:44:29;;;;;;;;;;;;;;;-144.99;100.00;52333.94;5062977;28;19975;-74
2021/09/15 09:46:56;;;;;;;;;;;;;;;-144.99;100.00;52313.56;5062653;28;19992;-74
2021/09/15 09:49:22;;;;;;;;;;;;;;;-144.99;100.00;52278.91;5077010;28;20017;-75
2021/09/15 09:51:48;;;;;;;;;;;;;;;-144.99;100.00;52303.38;5061315;28;19982;-74
2021/09/15 09:54:20;;;;;;;;;;;;;;;-144.99;100.00;52325.81;5068778;28;19975;-74
2021/09/15 09:56:47;;;;;;;;;;;;;;;-144.99;100.00;52321.72;5071989;28;20222;-73
2021/09/15 09:59:14;;;;;;;;;;;;;;;-144.99;100.00;52338.03;5061641;28;20054;-73
2021/09/15 10:01:41;;;;;;;;;;;;;;;-144.99;100.00;52305.41;5062403;28;19974;-74
2021/09/15 10:04:07;;;;;;;;;;;;;;;-144.99;100.00;52291.16;5055768;28;20235;-72
2021/09/15 10:06:35;;;;;;;;;;;;;;;-144.99;100.00;52340.06;5059901;28;19975;-73
2021/09/15 10:09:02;;;;;;;;;;;;;;;-144.99;100.00;52289.13;5068696;28;20212;-70
2021/09/15 10:11:30;;;;;;;;;;;;;;;-144.99;100.00;52313.56;5058569;28;20389;-73
2021/09/15 10:13:57;;;;;;;;;;;;;;;-144.99;100.00;52305.41;5063648;28;19977;-74
2021/09/15 10:16:24;;;;;;;;;;;;;;;-144.99;100.00;52307.47;5063244;28;19994;-72
2021/09/15 10:19:00;;;;;;;;;;;;;;;-144.99;100.00;52325.81;5061244;28;20006;-73
2021/09/15 10:21:27;;;;;;;;;;;;;;;-144.99;100.00;52301.34;5061144;28;20731;-74
2021/09/15 10:23:54;;;;;;;;;;;;;;;-144.99;100.00;52309.50;5061744;28;19977;-74
2021/09/15 10:26:45;;;;;;;;;;;;;;;-144.99;100.00;52276.88;5062822;28;20649;-74
2021/09/15 10:29:29;;;;;;;;;;;;;;;-144.99;100.00;52293.19;5055019;28;20057;-72
2021/09/15 10:31:59;;;;;;;;;;;;;;;-144.99;100.00;52293.19;5058471;28;20391;-76
2021/09/15 10:34:44;;;;;;;;;;;;;;;-144.99;100.00;52313.56;5070523;28;19980;-74
2021/09/15 10:37:25;;;;;;;;;;;;;;;-144.99;100.00;52297.25;5060944;28;19980;-76
2021/09/15 10:39:53;;;;;;;;;;;;;;;-144.99;100.00;52293.19;5061247;28;19977;-75
2021/09/15 10:42:34;;;;;;;;;;;;;;;-144.99;100.00;52319.69;5061686;28;20489;-75
2021/09/15 10:45:13;;;;;;;;;;;;;;;-144.99;100.00;52268.72;5068272;28;20021;-75
2021/09/15 10:47:42;;;;;;;;;;;;;;;-144.99;100.00;52276.88;5055489;28;19994;-74
2021/09/15 10:50:09;;;;;;;;;;;;;;;-144.99;100.00;52309.50;5061153;28;19974;-75
2021/09/15 10:52:37;;;;;;;;;;;;;;;-144.99;100.00;52354.34;5060707;28;20158;-74
2021/09/15 10:55:14;;;;;;;;;;;;;;;-144.99;100.00;52276.88;5074442;28;20054;-77
2021/09/15 10:57:44;;;;;;;;;;;;;;;-144.99;100.00;52301.34;5070979;28;20013;-73
2021/09/15 11:00:24;;;;;;;;;;;;;;;-144.99;100.00;52329.88;5060875;28;19987;-74
2021/09/15 11:02:52;;;;;;;;;;;;;;;-144.99;100.00;52331.91;5061932;28;20427;-74
2021/09/15 11:05:37;;;;;;;;;;;;;;;-144.99;100.00;52313.56;5060611;28;20220;-75
2021/09/15 11:08:03;;;;;;;;;;;;;;;-144.99;100.00;52333.94;5060995;28;20460;-74
2021/09/15 11:10:42;;;;;;;;;;;;;;;-144.99;100.00;52309.50;5061681;28;19991;-74
2021/09/15 11:13:10;;;;;;;;;;;;;;;-144.99;100.00;52315.59;5063883;28;20123;-75
2021/09/15 11:15:37;;;;;;;;;;;;;;;-144.99;100.00;52327.84;5062854;28;20513;-72
2021/09/15 11:18:05;;;;;;;;;;;;;;;-144.99;100.00;52321.72;5061905;28;19999;-74
2021/09/15 11:20:34;;;;;;;;;;;;;;;-144.99;100.00;52285.03;5061968;28;19979;-73
2021/09/15 11:23:02;;;;;;;;;;;;;;;-144.99;100.00;52276.88;5061317;28;20343;-71
2021/09/15 11:25:29;;;;;;;;;;;;;;;-144.99;100.00;52344.16;5069596;28;20327;-75
2021/09/15 11:28:05;;;;;;;;;;;;;;;-144.99;100.00;52309.50;5062584;28;19996;-76
2021/09/15 11:30:32;;;;;;;;;;;;;;;-144.99;100.00;52301.34;5062370;28;20183;-75
2021/09/15 11:32:58;;;;;;;;;;;;;;;-144.99;100.00;52297.25;5069228;28;20082;-72
2021/09/15 11:35:26;;;;;;;;;;;;;;;-144.99;100.00;52338.03;5064877;28;19980;-74
2021/09/15 11:37:53;;;;;;;;;;;;;;;-144.99;100.00;52313.56;5059222;28;20087;-71
2021/09/15 11:40:26;;;;;;;;;;;;;;;-144.99;100.00;52280.97;5068203;28;20362;-74
2021/09/15 11:42:53;;;;;;;;;;;;;;;-144.99;100.00;52285.03;5068312;28;19979;-72
2021/09/15 11:45:20;;;;;;;;;;;;;;;-144.99;100.00;52317.66;5071557;28;19980;-75
2021/09/15 11:47:48;;;;;;;;;;;;;;;-144.99;100.00;52311.53;5062190;28;19996;-76
2021/09/15 11:50:15;;;;;;;;;;;;;;;-144.99;100.00;52293.19;5063020;28;20070;-74
2021/09/15 11:52:44;;;;;;;;;;;;;;;-144.99;100.00;52325.81;5056493;28;19999;-74
2021/09/15 11:55:12;;;;;;;;;;;;;;;-144.99;100.00;52305.41;5069567;28;19979;-74
2021/09/15 12:00:16;;;;;;;;;;;;;;;-144.99;100.00;52309.50;5047136;28;19988;-76
2021/09/15 12:02:44;;;;;;;;;;;;;;;-144.99;100.00;52301.34;5052448;28;20409;-77
2021/09/15 12:05:11;;;;;;;;;;;;;;;-144.99;100.00;52329.88;5053189;28;19982;-76
2021/09/15 12:07:38;;;;;;;;;;;;;;;-144.99;100.00;52311.53;5051770;28;19975;-75
2021/09/15 12:10:08;;;;;;;;;;;;;;;-144.99;100.00;52321.72;5029958;28;20027;-75
2021/09/15 12:12:34;;;;;;;;;;;;;;;-144.99;100.00;52307.47;5030917;28;20039;-75
2021/09/15 12:15:01;;;;;;;;;;;;;;;-144.99;100.00;52348.22;5034032;28;19963;-74
2021/09/15 12:17:28;;;;;;;;;;;;;;;-144.99;100.00;52301.34;5032347;28;20000;-76
2021/09/15 12:19:55;;;;;;;;;;;;;;;-144.99;100.00;52350.25;5028493;28;20002;-75
2021/09/15 12:22:23;;;;;;;;;;;;;;;-144.99;100.00;52325.81;5028401;28;19978;-75
2021/09/15 12:24:59;;;;;;;;;;;;;;;-144.99;100.00;52297.25;5038257;28;19982;-75
2021/09/15 12:27:27;;;;;;;;;;;;;;;-144.99;100.00;52309.50;5047006;28;19999;-77
2021/09/15 12:30:01;;;;;;;;;;;;;;;-144.99;100.00;52342.09;5053951;28;20011;-77
2021/09/15 12:32:28;;;;;;;;;;;;;;;-144.99;100.00;52285.03;5050415;28;20004;-77
2021/09/15 12:34:55;;;;;;;;;;;;;;;-144.99;100.00;52305.41;5068989;28;20200;-77